createdAt,value
2024-02-21T00:02:15.070Z,0.52
2024-02-21T00:04:44.469Z,0.68
2024-02-21T00:07:11.340Z,0.63
2024-02-21T00:09:38.157Z,0.80
2024-02-21T00:12:06.436Z,0.70
2024-02-21T00:14:35.300Z,0.80
2024-02-21T00:17:03.112Z,0.52
2024-02-21T00:19:31.109Z,0.73
2024-02-21T00:21:57.963Z,0.65
2024-02-21T00:24:25.736Z,0.75
2024-02-21T00:26:55.766Z,0.40
2024-02-21T00:29:22.600Z,0.70
2024-02-21T00:31:50.630Z,0.82
2024-02-21T00:34:18.655Z,0.70
2024-02-21T00:36:45.619Z,0.93
2024-02-21T00:39:12.489Z,0.50
2024-02-21T00:41:39.405Z,0.60
2024-02-21T00:44:14.252Z,0.57
2024-02-21T00:46:43.294Z,0.50
2024-02-21T00:49:15.279Z,0.70
2024-02-21T00:51:42.165Z,0.70
2024-02-21T00:54:08.963Z,0.60
2024-02-21T00:56:36.733Z,0.50
2024-02-21T00:59:04.935Z,0.77
2024-02-21T01:01:31.996Z,0.70
2024-02-21T01:04:00.084Z,0.80
2024-02-21T01:06:27.151Z,0.80
2024-02-21T01:08:54.093Z,0.50
2024-02-21T01:11:23.981Z,0.45
2024-02-21T01:13:52.998Z,0.60
2024-02-21T01:16:20.927Z,0.80
2024-02-21T01:18:47.848Z,0.60
2024-02-21T01:21:14.721Z,0.60
2024-02-21T01:23:41.852Z,0.80
2024-02-21T01:26:09.431Z,0.63
2024-02-21T01:28:37.019Z,0.70
2024-02-21T01:31:04.304Z,0.73
2024-02-21T01:33:35.904Z,0.50
2024-02-21T01:36:03.954Z,0.57
2024-02-21T01:38:31.175Z,0.70
2024-02-21T01:41:00.225Z,0.55
2024-02-21T01:43:27.289Z,0.60
2024-02-21T01:45:56.858Z,0.90
2024-02-21T01:48:23.965Z,0.80
2024-02-21T01:50:51.114Z,0.90
2024-02-21T01:53:39.671Z,0.90
2024-02-21T01:56:07.290Z,0.55
2024-02-21T01:58:38.084Z,0.35
2024-02-21T02:01:04.945Z,0.50
2024-02-21T02:03:32.818Z,0.50
2024-02-21T02:05:59.714Z,0.50
2024-02-21T02:08:27.559Z,1.27
2024-02-21T02:10:56.433Z,0.70
2024-02-21T02:13:26.556Z,1.10
2024-02-21T02:15:54.362Z,0.88
2024-02-21T02:18:21.355Z,1.42
2024-02-21T02:20:48.796Z,0.65
2024-02-21T02:23:32.648Z,0.52
2024-02-21T02:26:04.773Z,0.98
2024-02-21T02:28:32.753Z,0.70
2024-02-21T02:31:01.587Z,0.80
2024-02-21T02:33:31.456Z,0.70
2024-02-21T02:36:00.376Z,0.60
2024-02-21T02:38:28.162Z,0.57
2024-02-21T02:40:55.917Z,0.90
2024-02-21T02:43:23.693Z,0.63
2024-02-21T02:45:50.540Z,0.65
2024-02-21T02:48:17.596Z,0.88
2024-02-21T02:50:47.033Z,0.70
2024-02-21T02:53:14.096Z,1.00
2024-02-21T02:55:40.970Z,0.80
2024-02-21T02:58:09.897Z,0.70
2024-02-21T03:00:37.873Z,0.70
2024-02-21T03:03:09.625Z,0.70
2024-02-21T03:05:37.569Z,0.93
2024-02-21T03:08:07.946Z,1.08
2024-02-21T03:10:36.018Z,1.10
2024-02-21T03:13:02.944Z,0.77
2024-02-21T03:15:30.804Z,0.85
2024-02-21T03:17:58.661Z,1.00
2024-02-21T03:20:26.552Z,0.82
2024-02-21T03:22:54.501Z,0.70
2024-02-21T03:25:21.591Z,0.90
2024-02-21T03:27:49.386Z,0.82
2024-02-21T03:30:16.296Z,1.17
2024-02-21T03:32:44.151Z,0.85
2024-02-21T03:35:13.041Z,1.20
2024-02-21T03:37:42.029Z,1.00
2024-02-21T03:40:12.216Z,0.80
2024-02-21T03:42:40.075Z,1.02
2024-02-21T03:45:07.587Z,0.80
2024-02-21T03:47:35.450Z,0.63
2024-02-21T03:50:02.554Z,0.70
2024-02-21T03:52:29.533Z,0.60
2024-02-21T03:54:57.412Z,0.70
2024-02-21T03:57:25.190Z,0.60
2024-02-21T03:59:53.960Z,0.85
2024-02-21T04:02:21.812Z,0.80
2024-02-21T04:04:49.294Z,0.60
2024-02-21T04:07:17.360Z,0.80
2024-02-21T04:09:44.247Z,0.77
2024-02-21T04:12:11.181Z,0.82
2024-02-21T04:14:38.046Z,0.57
2024-02-21T04:17:06.506Z,0.47
2024-02-21T04:19:34.899Z,0.80
2024-02-21T04:22:03.818Z,0.60
2024-02-21T04:24:31.518Z,0.63
2024-02-21T04:27:01.750Z,0.63
2024-02-21T04:29:32.535Z,0.60
2024-02-21T04:31:59.348Z,0.70
2024-02-21T04:34:26.321Z,0.68
2024-02-21T04:36:53.947Z,0.85
2024-02-21T04:39:22.701Z,0.80
2024-02-21T04:41:51.434Z,0.52
2024-02-21T04:44:18.362Z,0.45
2024-02-21T04:46:45.119Z,0.60
2024-02-21T04:49:12.936Z,0.70
2024-02-21T04:51:41.762Z,0.35
2024-02-21T04:54:08.512Z,0.45
2024-02-21T04:56:35.624Z,0.80
2024-02-21T04:59:02.521Z,0.80
2024-02-21T05:01:29.768Z,0.60
2024-02-21T05:03:56.562Z,0.70
2024-02-21T05:06:25.442Z,0.57
2024-02-21T05:08:52.265Z,0.63
2024-02-21T05:11:19.206Z,0.38
2024-02-21T05:13:46.622Z,0.55
2024-02-21T05:16:13.511Z,0.50
2024-02-21T05:18:41.871Z,0.60
2024-02-21T05:21:09.775Z,0.70
2024-02-21T05:23:37.564Z,0.65
2024-02-21T05:26:05.897Z,0.60
2024-02-21T05:28:32.894Z,0.63
2024-02-21T05:31:00.730Z,0.52
2024-02-21T05:33:28.154Z,0.47
2024-02-21T05:35:55.001Z,0.70
2024-02-21T05:38:21.938Z,0.68
2024-02-21T05:40:48.807Z,0.40
2024-02-21T05:43:16.680Z,0.77
2024-02-21T05:45:43.517Z,0.70
2024-02-21T05:48:11.594Z,0.57
2024-02-21T05:50:38.871Z,0.55
2024-02-21T05:53:06.788Z,0.45
2024-02-21T05:55:34.792Z,0.70
2024-02-21T05:58:03.348Z,0.52
2024-02-21T06:00:31.302Z,0.38
2024-02-21T06:03:00.369Z,0.50
2024-02-21T06:05:28.640Z,0.63
2024-02-21T06:07:56.988Z,0.60
2024-02-21T06:10:25.880Z,0.50
2024-02-21T06:12:53.662Z,0.60
2024-02-21T06:15:28.766Z,0.63
2024-02-21T06:17:56.659Z,0.50
2024-02-21T06:20:23.512Z,0.63
2024-02-21T06:22:50.450Z,0.60
2024-02-21T06:25:17.403Z,0.50
2024-02-21T06:27:45.305Z,0.50
2024-02-21T06:30:12.406Z,0.40
2024-02-21T06:32:40.285Z,0.50
2024-02-21T06:35:07.295Z,0.40
2024-02-21T06:37:34.321Z,0.60
2024-02-21T06:40:02.243Z,0.52
2024-02-21T06:42:30.715Z,0.38
2024-02-21T06:44:57.551Z,0.40
2024-02-21T06:47:24.409Z,0.60
2024-02-21T06:49:52.764Z,0.57
2024-02-21T06:52:21.546Z,0.57
2024-02-21T06:54:48.476Z,0.57
2024-02-21T06:57:18.275Z,0.30
2024-02-21T06:59:46.026Z,0.43
2024-02-21T07:02:12.874Z,0.20
2024-02-21T07:04:39.725Z,0.50
2024-02-21T07:07:06.632Z,0.50
2024-02-21T07:09:33.527Z,0.50
2024-02-21T07:12:00.633Z,0.50
2024-02-21T07:14:29.232Z,0.50
2024-02-21T07:16:58.233Z,0.40
2024-02-21T07:19:25.947Z,0.30
2024-02-21T07:21:52.809Z,0.50
2024-02-21T07:24:19.702Z,0.40
2024-02-21T07:26:47.612Z,0.47
2024-02-21T07:29:14.545Z,0.40
2024-02-21T07:31:44.708Z,0.50
2024-02-21T07:34:11.615Z,0.40
2024-02-21T07:36:39.917Z,0.63
2024-02-21T07:39:06.946Z,0.55
2024-02-21T07:41:34.960Z,0.60
2024-02-21T07:44:01.980Z,0.50
2024-02-21T07:46:28.871Z,0.50
2024-02-21T07:48:56.745Z,0.60
2024-02-21T07:51:23.547Z,0.63
2024-02-21T07:53:50.303Z,0.50
2024-02-21T07:56:17.220Z,0.60
2024-02-21T07:58:44.137Z,0.60
2024-02-21T08:01:11.581Z,0.68
2024-02-21T08:03:38.505Z,0.50
2024-02-21T08:06:05.537Z,0.60
2024-02-21T08:08:32.303Z,0.70
2024-02-21T08:10:59.264Z,0.52
2024-02-21T08:13:26.593Z,0.60
2024-02-21T08:15:53.540Z,0.47
2024-02-21T08:18:20.474Z,0.40
2024-02-21T08:20:47.624Z,0.40
2024-02-21T08:23:16.693Z,0.88
2024-02-21T08:25:43.546Z,0.57
2024-02-21T08:28:10.363Z,0.60
2024-02-21T08:30:37.210Z,0.55
2024-02-21T08:33:05.141Z,0.60
2024-02-21T08:35:32.168Z,0.70
2024-02-21T08:38:00.031Z,1.00
2024-02-21T08:40:26.982Z,0.60
2024-02-21T08:42:55.318Z,0.60
2024-02-21T08:45:23.187Z,0.80
2024-02-21T08:47:50.134Z,0.82
2024-02-21T08:50:23.821Z,0.82
2024-02-21T08:52:56.012Z,0.50
2024-02-21T08:55:23.035Z,0.43
2024-02-21T08:57:50.097Z,0.80
2024-02-21T09:00:17.441Z,0.65
2024-02-21T09:02:44.583Z,0.60
2024-02-21T09:05:12.018Z,0.73
2024-02-21T09:07:39.045Z,0.70
2024-02-21T09:10:06.494Z,0.60
2024-02-21T09:12:34.263Z,0.65
2024-02-21T09:15:01.050Z,0.80
2024-02-21T09:17:30.525Z,0.60
2024-02-21T09:20:00.811Z,0.80
2024-02-21T09:22:28.159Z,0.60
2024-02-21T09:24:55.227Z,0.50
2024-02-21T09:27:23.378Z,0.70
2024-02-21T09:29:50.297Z,0.80
2024-02-21T09:32:17.457Z,0.50
2024-02-21T09:34:44.414Z,0.88
2024-02-21T09:37:11.322Z,0.60
2024-02-21T09:39:38.298Z,0.82
2024-02-21T09:42:07.341Z,0.50
2024-02-21T09:44:38.750Z,0.85
2024-02-21T09:47:08.920Z,0.65
2024-02-21T09:49:40.004Z,0.30
2024-02-21T09:52:07.482Z,0.70
2024-02-21T09:54:34.907Z,0.60
2024-02-21T09:57:02.427Z,0.55
2024-02-21T09:59:30.298Z,0.35
2024-02-21T10:01:57.294Z,0.57
2024-02-21T10:04:24.770Z,0.80
2024-02-21T10:06:51.702Z,0.55
2024-02-21T10:09:25.257Z,0.65
2024-02-21T10:11:52.652Z,0.50
2024-02-21T10:14:19.650Z,0.50
2024-02-21T10:16:49.034Z,0.60
2024-02-21T10:19:19.965Z,0.70
2024-02-21T10:22:01.689Z,0.70
2024-02-21T10:24:29.496Z,0.32
2024-02-21T10:27:09.848Z,0.40
2024-02-21T10:29:37.917Z,0.43
2024-02-21T10:32:14.687Z,0.40
2024-02-21T10:34:43.924Z,0.40
2024-02-21T10:37:12.294Z,0.68
2024-02-21T10:39:43.129Z,0.50
2024-02-21T10:42:13.389Z,0.30
2024-02-21T10:44:41.791Z,0.52
2024-02-21T10:47:10.525Z,0.35
2024-02-21T10:49:40.740Z,0.32
2024-02-21T10:52:14.397Z,0.50
2024-02-21T10:54:48.914Z,0.40
2024-02-21T10:57:17.054Z,0.30
2024-02-21T10:59:46.064Z,0.43
2024-02-21T11:02:14.077Z,0.60
2024-02-21T11:04:42.351Z,0.45
2024-02-21T11:07:11.047Z,0.40
2024-02-21T11:09:38.962Z,0.35
2024-02-21T11:12:07.028Z,0.40
2024-02-21T11:14:40.335Z,0.38
2024-02-21T11:17:28.280Z,0.45
2024-02-21T11:19:57.571Z,0.30
2024-02-21T11:22:26.145Z,0.50
2024-02-21T11:24:54.610Z,0.20
2024-02-21T11:27:27.532Z,0.38
2024-02-21T11:29:59.158Z,0.40
2024-02-21T11:32:26.596Z,0.40
2024-02-21T11:34:57.244Z,0.50
2024-02-21T11:37:26.386Z,0.30
2024-02-21T11:39:54.372Z,0.40
2024-02-21T11:42:21.224Z,0.30
2024-02-21T11:44:48.211Z,0.32
2024-02-21T11:47:16.065Z,0.30
2024-02-21T11:49:55.101Z,0.40
2024-02-21T11:52:27.136Z,0.38
2024-02-21T11:54:55.918Z,0.40
2024-02-21T11:57:24.913Z,0.40
2024-02-21T11:59:56.520Z,0.50
2024-02-21T12:02:27.853Z,0.50
2024-02-21T12:04:56.320Z,0.45
2024-02-21T12:07:29.899Z,0.40
2024-02-21T12:10:00.695Z,0.55
2024-02-21T12:12:28.613Z,0.40
2024-02-21T12:15:01.459Z,0.45
2024-02-21T12:17:29.326Z,0.30
2024-02-21T12:19:56.181Z,0.45
2024-02-21T12:22:23.147Z,0.50
2024-02-21T12:24:50.170Z,0.40
2024-02-21T12:27:17.074Z,0.47
2024-02-21T12:29:44.108Z,0.40
2024-02-21T12:32:11.214Z,0.40
2024-02-21T12:34:48.388Z,0.40
2024-02-21T12:37:21.662Z,0.40
2024-02-21T12:39:49.102Z,0.40
2024-02-21T12:42:16.025Z,0.40
2024-02-21T12:44:43.442Z,0.57
2024-02-21T12:47:10.577Z,0.40
2024-02-21T12:49:42.850Z,0.55
2024-02-21T12:52:12.687Z,0.47
2024-02-21T12:54:39.594Z,0.30
2024-02-21T12:57:06.819Z,0.50
2024-02-21T12:59:33.767Z,0.40
2024-02-21T13:02:00.712Z,0.43
2024-02-21T13:04:28.822Z,0.40
2024-02-21T13:06:56.791Z,0.50
2024-02-21T13:09:24.611Z,0.40
2024-02-21T13:11:52.768Z,0.50
2024-02-21T13:14:19.913Z,0.40
2024-02-21T13:16:46.776Z,0.30
2024-02-21T13:19:15.245Z,0.45
2024-02-21T13:21:42.126Z,0.35
2024-02-21T13:24:09.375Z,0.40
2024-02-21T13:26:36.256Z,0.38
2024-02-21T13:29:04.370Z,0.50
2024-02-21T13:31:31.486Z,0.40
2024-02-21T13:33:58.442Z,0.47
2024-02-21T13:36:27.474Z,0.20
2024-02-21T13:38:54.768Z,0.32
2024-02-21T13:41:23.221Z,0.40
2024-02-21T13:43:50.981Z,0.40
2024-02-21T13:46:21.195Z,0.30
2024-02-21T13:48:48.215Z,0.77
2024-02-21T13:51:17.835Z,0.40
2024-02-21T13:53:44.577Z,0.30
2024-02-21T13:56:11.558Z,0.38
2024-02-21T13:58:38.614Z,0.38
2024-02-21T14:01:05.760Z,0.40
2024-02-21T14:03:32.664Z,0.45
2024-02-21T14:05:59.613Z,0.40
2024-02-21T14:08:27.411Z,0.40
2024-02-21T14:10:55.160Z,0.55
2024-02-21T14:13:22.162Z,0.35
2024-02-21T14:15:51.029Z,0.40
2024-02-21T14:18:18.089Z,0.20
2024-02-21T14:20:48.289Z,0.40
2024-02-21T14:23:15.721Z,0.50
2024-02-21T14:25:43.758Z,0.30
2024-02-21T14:28:10.594Z,0.50
2024-02-21T14:30:37.471Z,0.50
2024-02-21T14:33:04.661Z,0.40
2024-02-21T14:35:35.619Z,0.30
2024-02-21T14:38:02.869Z,0.60
2024-02-21T14:40:31.526Z,0.70
2024-02-21T14:42:58.486Z,0.73
2024-02-21T14:45:26.530Z,0.40
2024-02-21T14:47:53.344Z,0.30
2024-02-21T14:50:20.254Z,0.57
2024-02-21T14:52:48.196Z,0.47
2024-02-21T14:55:15.474Z,0.70
2024-02-21T14:57:43.914Z,0.38
2024-02-21T15:00:12.702Z,0.52
2024-02-21T15:02:43.952Z,0.30
2024-02-21T15:05:13.507Z,0.40
2024-02-21T15:07:40.733Z,0.32
2024-02-21T15:10:07.795Z,0.40
2024-02-21T15:12:34.696Z,0.40
2024-02-21T15:15:02.787Z,0.55
2024-02-21T15:17:31.765Z,0.30
2024-02-21T15:20:00.339Z,0.50
2024-02-21T15:22:27.313Z,0.40
2024-02-21T15:24:54.218Z,0.40
2024-02-21T15:27:21.032Z,0.50
2024-02-21T15:29:47.960Z,0.45
2024-02-21T15:32:14.835Z,0.50
2024-02-21T15:34:42.881Z,0.60
2024-02-21T15:37:11.912Z,0.47
2024-02-21T15:39:38.693Z,0.65
2024-02-21T15:42:05.831Z,0.73
2024-02-21T15:44:32.986Z,0.57
2024-02-21T15:47:00.407Z,0.68
2024-02-21T15:49:28.370Z,0.60
2024-02-21T15:51:55.709Z,0.50
2024-02-21T15:54:24.563Z,0.38
2024-02-21T15:56:53.413Z,0.30
2024-02-21T15:59:20.224Z,0.63
2024-02-21T16:01:47.258Z,0.50
2024-02-21T16:04:16.433Z,0.40
2024-02-21T16:06:44.240Z,0.40
2024-02-21T16:09:11.411Z,0.60
2024-02-21T16:11:38.570Z,0.57
2024-02-21T16:14:05.608Z,0.40
2024-02-21T16:16:32.731Z,0.60
2024-02-21T16:18:59.760Z,0.22
2024-02-21T16:21:27.671Z,0.45
2024-02-21T16:23:54.735Z,0.25
2024-02-21T16:26:21.770Z,0.45
2024-02-21T16:28:49.517Z,0.40
2024-02-21T16:31:16.359Z,0.30
2024-02-21T16:33:43.400Z,0.35
2024-02-21T16:36:10.363Z,0.50
2024-02-21T16:38:41.022Z,0.40
2024-02-21T16:41:08.587Z,0.30
2024-02-21T16:43:35.800Z,0.40
2024-02-21T16:46:02.731Z,0.30
2024-02-21T16:48:30.770Z,0.30
2024-02-21T16:51:01.024Z,0.35
2024-02-21T16:53:28.883Z,0.38
2024-02-21T16:55:56.324Z,0.60
2024-02-21T16:58:23.496Z,0.30
2024-02-21T17:00:50.422Z,0.30
2024-02-21T17:03:21.502Z,0.32
2024-02-21T17:05:54.870Z,0.40
2024-02-21T17:08:25.037Z,0.40
2024-02-21T17:10:52.728Z,0.30
2024-02-21T17:13:19.790Z,0.30
2024-02-21T17:15:47.179Z,0.40
2024-02-21T17:18:15.364Z,0.40
2024-02-21T17:20:42.234Z,0.40
2024-02-21T17:23:09.134Z,0.40
2024-02-21T17:25:36.480Z,0.50
2024-02-21T17:28:03.681Z,0.30
2024-02-21T17:30:31.457Z,0.40
2024-02-21T17:32:58.252Z,0.30
2024-02-21T17:35:25.763Z,0.43
2024-02-21T17:37:52.873Z,0.38
2024-02-21T17:40:19.875Z,0.45
2024-02-21T17:42:46.601Z,0.47
2024-02-21T17:45:13.398Z,0.40
2024-02-21T17:47:41.305Z,0.50
2024-02-21T17:50:08.592Z,0.40
2024-02-21T17:52:35.440Z,0.40
2024-02-21T17:55:05.394Z,0.35
2024-02-21T17:57:32.531Z,0.40
2024-02-21T18:00:02.883Z,0.45
2024-02-21T18:02:30.112Z,0.57
2024-02-21T18:04:57.018Z,0.50
2024-02-21T18:07:25.166Z,0.52
2024-02-21T18:09:52.195Z,0.55
2024-02-21T18:12:18.929Z,0.47
2024-02-21T18:14:45.699Z,0.40
2024-02-21T18:17:17.112Z,0.50
2024-02-21T18:19:43.996Z,0.30
2024-02-21T18:22:10.872Z,0.40
2024-02-21T18:24:38.207Z,0.43
2024-02-21T18:27:05.503Z,0.35
2024-02-21T18:29:38.893Z,0.63
2024-02-21T18:32:11.055Z,0.50
2024-02-21T18:34:39.290Z,0.45
2024-02-21T18:37:06.383Z,0.50
2024-02-21T18:39:34.658Z,0.50
2024-02-21T18:42:03.197Z,0.50
2024-02-21T18:44:30.022Z,0.50
2024-02-21T18:46:58.120Z,0.40
2024-02-21T18:49:25.274Z,0.35
2024-02-21T18:51:52.189Z,0.43
2024-02-21T18:54:18.919Z,0.60
2024-02-21T18:56:46.702Z,0.60
2024-02-21T18:59:14.540Z,0.70
2024-02-21T19:01:41.455Z,0.70
2024-02-21T19:04:08.378Z,0.80
2024-02-21T19:06:35.362Z,0.70
2024-02-21T19:09:05.454Z,0.73
2024-02-21T19:11:32.462Z,0.68
2024-02-21T19:13:59.716Z,0.88
2024-02-21T19:16:27.793Z,0.47
2024-02-21T19:18:54.816Z,1.30
2024-02-21T19:21:21.833Z,0.57
2024-02-21T19:23:48.740Z,0.60
2024-02-21T19:26:16.827Z,0.70
2024-02-21T19:28:43.948Z,0.70
2024-02-21T19:31:13.148Z,0.80
2024-02-21T19:33:40.207Z,0.70
2024-02-21T19:36:10.497Z,0.88
2024-02-21T19:38:38.133Z,0.60
2024-02-21T19:41:08.399Z,1.20
2024-02-21T19:43:36.434Z,0.80
2024-02-21T19:46:03.457Z,0.93
2024-02-21T19:48:30.514Z,0.95
2024-02-21T19:50:58.213Z,1.20
2024-02-21T19:53:25.276Z,1.13
2024-02-21T19:55:52.605Z,0.90
2024-02-21T19:58:19.476Z,0.98
2024-02-21T20:00:46.279Z,0.80
2024-02-21T20:03:21.930Z,1.40
2024-02-21T20:05:49.141Z,1.00
2024-02-21T20:08:20.324Z,1.20
2024-02-21T20:10:47.334Z,1.40
2024-02-21T20:13:22.602Z,1.77
2024-02-21T20:15:51.898Z,1.00
2024-02-21T20:18:19.004Z,1.10
2024-02-21T20:20:49.993Z,1.20
2024-02-21T20:23:21.495Z,1.17
2024-02-21T20:25:48.808Z,1.38
2024-02-21T20:28:38.960Z,0.85
2024-02-21T20:31:05.839Z,1.08
2024-02-21T20:33:34.592Z,0.98
2024-02-21T20:36:02.448Z,0.75
2024-02-21T20:38:29.352Z,0.95
2024-02-21T20:40:57.150Z,0.90
2024-02-21T20:43:24.062Z,1.00
2024-02-21T20:45:51.938Z,0.90
2024-02-21T20:48:18.729Z,0.65
2024-02-21T20:50:46.661Z,0.70
2024-02-21T20:53:14.531Z,0.88
2024-02-21T20:55:42.299Z,1.00
2024-02-21T20:58:16.009Z,0.95
2024-02-21T21:00:45.933Z,0.70
2024-02-21T21:03:12.833Z,0.70
2024-02-21T21:05:40.029Z,1.00
2024-02-21T21:08:14.184Z,0.77
2024-02-21T21:10:41.291Z,0.80
2024-02-21T21:13:16.100Z,1.08
2024-02-21T21:15:50.367Z,1.00
2024-02-21T21:18:17.794Z,0.93
2024-02-21T21:20:45.764Z,0.63
2024-02-21T21:23:14.693Z,0.70
2024-02-21T21:25:42.192Z,0.50
2024-02-21T21:28:09.970Z,0.57
2024-02-21T21:30:37.815Z,0.80
2024-02-21T21:33:17.005Z,0.60
2024-02-21T21:35:45.598Z,0.75
2024-02-21T21:38:14.663Z,0.55
2024-02-21T21:40:46.978Z,0.70
2024-02-21T21:43:13.859Z,0.40
2024-02-21T21:45:40.640Z,0.65
2024-02-21T21:48:08.044Z,0.50
2024-02-21T21:50:36.581Z,0.73
2024-02-21T21:53:03.750Z,0.68
2024-02-21T21:55:32.596Z,0.47
2024-02-21T21:57:59.604Z,0.40
2024-02-21T22:00:26.457Z,0.75
2024-02-21T22:02:53.331Z,0.57
2024-02-21T22:05:20.530Z,0.60
2024-02-21T22:07:49.030Z,0.47
2024-02-21T22:10:16.134Z,0.77
2024-02-21T22:12:43.371Z,0.43
2024-02-21T22:15:10.318Z,0.60
2024-02-21T22:17:37.300Z,0.60
2024-02-21T22:20:05.324Z,0.65
2024-02-21T22:22:32.209Z,1.02
2024-02-21T22:24:59.103Z,0.60
2024-02-21T22:27:28.237Z,0.70
2024-02-21T22:29:58.018Z,0.60
2024-02-21T22:32:24.794Z,0.95
2024-02-21T22:34:51.695Z,0.55
2024-02-21T22:37:18.664Z,0.70
2024-02-21T22:39:46.286Z,0.60
2024-02-21T22:42:13.074Z,0.40
2024-02-21T22:44:43.934Z,0.50
2024-02-21T22:47:11.440Z,1.02
2024-02-21T22:49:38.278Z,0.70
2024-02-21T22:52:05.221Z,1.15
2024-02-21T22:54:32.216Z,0.60
2024-02-21T22:56:59.245Z,0.30
2024-02-21T22:59:26.490Z,0.63
2024-02-21T23:01:53.470Z,0.30
2024-02-21T23:04:20.253Z,0.70
2024-02-21T23:06:47.725Z,0.65
2024-02-21T23:09:16.599Z,0.40
2024-02-21T23:11:43.544Z,0.60
2024-02-21T23:14:10.505Z,0.55
2024-02-21T23:16:38.269Z,0.52
2024-02-21T23:19:05.343Z,0.80
2024-02-21T23:21:32.235Z,0.47
2024-02-21T23:23:59.166Z,0.50
2024-02-21T23:26:32.145Z,0.70
2024-02-21T23:28:59.724Z,0.60
2024-02-21T23:31:26.914Z,0.65
2024-02-21T23:33:53.887Z,0.90
2024-02-21T23:36:20.862Z,0.77
2024-02-21T23:38:47.750Z,0.60
2024-02-21T23:41:17.940Z,0.50
2024-02-21T23:43:45.093Z,0.40
2024-02-21T23:46:11.961Z,0.60
2024-02-21T23:48:39.744Z,0.70
2024-02-21T23:51:07.259Z,0.60
2024-02-21T23:53:34.266Z,0.57
2024-02-21T23:56:03.405Z,0.70
2024-02-21T23:58:30.256Z,0.88
